createdAt,value
2022-09-21T00:01:16.191Z,7.19
2022-09-21T00:03:43.676Z,7.09
2022-09-21T00:06:13.777Z,6.85
2022-09-21T00:08:40.491Z,6.80
2022-09-21T00:11:08.771Z,6.86
2022-09-21T00:13:37.884Z,6.85
2022-09-21T00:16:08.422Z,6.72
2022-09-21T00:18:36.378Z,6.62
2022-09-21T00:21:08.048Z,6.71
2022-09-21T00:23:36.190Z,6.76
2022-09-21T00:26:13.508Z,6.73
2022-09-21T00:28:40.756Z,6.63
2022-09-21T00:31:12.171Z,6.55
2022-09-21T00:33:39.431Z,6.57
2022-09-21T00:36:07.916Z,6.62
2022-09-21T00:38:35.098Z,6.76
2022-09-21T00:41:02.099Z,6.85
2022-09-21T00:43:28.749Z,6.89
2022-09-21T00:46:07.306Z,6.90
2022-09-21T00:48:34.258Z,6.86
2022-09-21T00:51:06.475Z,6.88
2022-09-21T00:53:34.117Z,7.02
2022-09-21T00:56:02.721Z,7.01
2022-09-21T00:58:33.122Z,7.04
2022-09-21T01:01:00.543Z,7.09
2022-09-21T01:03:29.198Z,7.12
2022-09-21T01:05:56.519Z,7.01
2022-09-21T01:08:26.089Z,7.03
2022-09-21T01:11:08.383Z,7.00
2022-09-21T01:13:43.528Z,6.95
2022-09-21T01:16:12.670Z,6.97
2022-09-21T01:19:07.924Z,6.99
2022-09-21T01:22:03.417Z,6.90
2022-09-21T01:24:51.131Z,6.80
2022-09-21T01:27:32.127Z,6.70
2022-09-21T01:30:05.572Z,6.59
2022-09-21T01:32:33.738Z,6.70
2022-09-21T01:35:09.554Z,6.57
2022-09-21T01:37:40.248Z,6.34
2022-09-21T01:40:12.712Z,6.49
2022-09-21T01:42:41.023Z,6.55
2022-09-21T01:45:09.289Z,6.62
2022-09-21T01:47:37.522Z,6.64
2022-09-21T01:50:06.395Z,6.57
2022-09-21T01:52:48.182Z,6.55
2022-09-21T01:55:21.899Z,6.54
2022-09-21T01:58:12.116Z,6.50
2022-09-21T02:00:40.266Z,6.52
2022-09-21T02:03:16.091Z,6.48
2022-09-21T02:05:42.990Z,6.49
2022-09-21T02:08:10.433Z,6.45
2022-09-21T02:10:45.066Z,6.41
2022-09-21T02:13:14.407Z,6.29
2022-09-21T02:15:51.729Z,6.24
2022-09-21T02:18:57.764Z,6.29
2022-09-21T02:21:49.495Z,6.40
2022-09-21T02:24:27.684Z,6.43
2022-09-21T02:27:04.364Z,6.44
2022-09-21T02:29:45.467Z,6.21
2022-09-21T02:32:38.229Z,6.25
2022-09-21T02:35:28.441Z,6.41
2022-09-21T02:38:08.890Z,6.39
2022-09-21T02:40:41.171Z,6.41
2022-09-21T02:43:13.715Z,6.40
2022-09-21T02:45:45.291Z,6.13
2022-09-21T02:48:17.183Z,6.00
2022-09-21T02:50:52.842Z,6.10
2022-09-21T02:53:24.155Z,6.12
2022-09-21T02:55:55.743Z,6.12
2022-09-21T02:58:25.985Z,6.14
2022-09-21T03:00:52.943Z,6.16
2022-09-21T03:03:24.864Z,6.22
2022-09-21T03:05:53.554Z,6.30
2022-09-21T03:08:20.961Z,6.24
2022-09-21T03:10:51.152Z,6.14
2022-09-21T03:13:18.901Z,6.08
2022-09-21T03:15:46.131Z,5.77
2022-09-21T03:18:13.269Z,5.64
2022-09-21T03:20:46.028Z,5.49
2022-09-21T03:23:13.071Z,5.47
2022-09-21T03:25:39.982Z,5.47
2022-09-21T03:28:06.932Z,5.40
2022-09-21T03:30:33.582Z,5.28
2022-09-21T03:33:00.231Z,5.26
2022-09-21T03:35:27.014Z,5.24
2022-09-21T03:37:55.340Z,5.30
2022-09-21T03:40:22.327Z,5.27
2022-09-21T03:42:49.328Z,5.31
2022-09-21T03:45:16.015Z,5.24
2022-09-21T03:47:42.982Z,5.20
2022-09-21T03:50:10.385Z,5.23
2022-09-21T03:52:38.633Z,5.34
2022-09-21T03:55:07.243Z,5.43
2022-09-21T03:57:34.539Z,5.49
2022-09-21T04:00:03.970Z,5.37
2022-09-21T04:02:32.115Z,5.29
2022-09-21T04:04:58.915Z,5.34
2022-09-21T04:07:26.352Z,5.36
2022-09-21T04:09:54.117Z,5.44
2022-09-21T04:12:23.904Z,5.49
2022-09-21T04:14:50.568Z,5.38
2022-09-21T04:17:17.323Z,5.22
2022-09-21T04:19:47.842Z,5.45
2022-09-21T04:22:14.866Z,5.36
2022-09-21T04:24:41.573Z,5.42
2022-09-21T04:27:08.816Z,5.46
2022-09-21T04:29:36.110Z,5.30
2022-09-21T04:32:03.293Z,5.12
2022-09-21T04:34:31.237Z,5.11
2022-09-21T04:36:58.591Z,5.00
2022-09-21T04:39:26.312Z,4.86
2022-09-21T04:41:53.227Z,4.83
2022-09-21T04:44:19.995Z,4.88
2022-09-21T04:46:47.179Z,4.80
2022-09-21T04:49:14.145Z,4.78
2022-09-21T04:51:40.892Z,4.75
2022-09-21T04:54:07.839Z,4.72
2022-09-21T04:56:34.995Z,4.86
2022-09-21T04:59:01.644Z,4.94
2022-09-21T05:01:28.972Z,4.90
2022-09-21T05:03:55.934Z,4.90
2022-09-21T05:06:22.587Z,4.91
2022-09-21T05:09:07.917Z,5.03
2022-09-21T05:11:34.681Z,5.12
2022-09-21T05:14:01.409Z,5.19
2022-09-21T05:16:28.096Z,5.06
2022-09-21T05:18:57.453Z,5.06
2022-09-21T05:21:24.194Z,4.96
2022-09-21T05:23:51.108Z,5.09
2022-09-21T05:26:17.822Z,5.27
2022-09-21T05:28:44.695Z,5.26
2022-09-21T05:31:18.046Z,5.17
2022-09-21T05:33:52.036Z,5.16
2022-09-21T05:36:30.727Z,5.15
2022-09-21T05:38:57.588Z,5.18
2022-09-21T05:41:24.448Z,5.28
2022-09-21T05:43:51.346Z,5.31
2022-09-21T05:46:32.915Z,5.29
2022-09-21T05:49:23.074Z,5.25
2022-09-21T05:52:03.048Z,5.35
2022-09-21T05:54:41.611Z,5.44
2022-09-21T05:57:30.683Z,5.48
2022-09-21T06:00:10.675Z,5.44
2022-09-21T06:03:24.559Z,5.51
2022-09-21T06:05:51.280Z,5.52
2022-09-21T06:08:17.947Z,5.69
2022-09-21T06:10:44.728Z,5.78
2022-09-21T06:13:11.753Z,5.73
2022-09-21T06:15:38.632Z,5.86
2022-09-21T06:18:08.932Z,6.04
2022-09-21T06:20:35.864Z,5.96
2022-09-21T06:23:06.820Z,5.81
2022-09-21T06:25:33.432Z,6.04
2022-09-21T06:28:07.791Z,6.46
2022-09-21T06:30:34.931Z,6.45
2022-09-21T06:33:02.498Z,6.31
2022-09-21T06:35:29.869Z,6.47
2022-09-21T06:38:00.713Z,6.36
2022-09-21T06:40:28.663Z,6.35
2022-09-21T06:42:59.591Z,6.47
2022-09-21T06:45:27.596Z,6.35
2022-09-21T06:47:54.332Z,6.39
2022-09-21T06:50:21.439Z,6.48
2022-09-21T06:52:48.145Z,6.59
2022-09-21T06:55:18.093Z,6.94
2022-09-21T06:57:45.041Z,7.21
2022-09-21T07:00:12.814Z,7.45
2022-09-21T07:02:43.507Z,7.66
2022-09-21T07:05:10.351Z,7.44
2022-09-21T07:07:36.989Z,7.41
2022-09-21T07:10:05.861Z,7.53
2022-09-21T07:12:36.063Z,7.44
2022-09-21T07:15:03.746Z,7.34
2022-09-21T07:17:38.299Z,7.24
2022-09-21T07:20:06.420Z,7.29
2022-09-21T07:22:33.187Z,7.50
2022-09-21T07:25:00.055Z,7.68
2022-09-21T07:27:28.074Z,7.67
2022-09-21T07:29:54.807Z,7.76
2022-09-21T07:32:21.732Z,7.86
2022-09-21T07:34:48.413Z,7.68
2022-09-21T07:37:15.292Z,7.96
2022-09-21T07:39:41.975Z,8.18
2022-09-21T07:42:08.768Z,8.31
2022-09-21T07:44:35.474Z,8.54
2022-09-21T07:47:03.510Z,8.57
2022-09-21T07:49:30.250Z,8.77
2022-09-21T07:52:01.386Z,8.87
2022-09-21T07:54:29.558Z,8.76
2022-09-21T07:57:15.266Z,8.75
2022-09-21T07:59:41.921Z,8.93
2022-09-21T08:02:08.599Z,9.13
2022-09-21T08:04:35.308Z,9.24
2022-09-21T08:07:01.906Z,9.34
2022-09-21T08:09:28.540Z,9.25
2022-09-21T08:11:55.815Z,9.47
2022-09-21T08:14:26.819Z,9.58
2022-09-21T08:16:53.828Z,9.82
2022-09-21T08:19:21.053Z,10.13
2022-09-21T08:21:56.303Z,10.29
2022-09-21T08:24:25.900Z,10.52
2022-09-21T08:26:53.205Z,10.90
2022-09-21T08:29:19.935Z,11.17
2022-09-21T08:31:47.010Z,11.28
2022-09-21T08:34:14.338Z,11.68
2022-09-21T08:36:41.214Z,11.83
2022-09-21T08:39:09.048Z,11.69
2022-09-21T08:41:58.277Z,12.03
2022-09-21T08:44:29.092Z,12.16
2022-09-21T08:47:09.787Z,12.27
2022-09-21T08:49:38.277Z,12.44
2022-09-21T08:52:14.748Z,12.44
2022-09-21T08:54:46.970Z,12.50
2022-09-21T08:57:15.093Z,12.33
2022-09-21T08:59:47.195Z,12.56
2022-09-21T09:02:52.535Z,12.80
2022-09-21T09:05:44.190Z,12.91
2022-09-21T09:08:35.430Z,13.11
2022-09-21T09:11:06.460Z,13.17
2022-09-21T09:13:55.922Z,13.32
2022-09-21T09:16:47.810Z,13.21
2022-09-21T09:19:29.050Z,13.38
2022-09-21T09:21:56.648Z,13.59
2022-09-21T09:24:42.669Z,13.68
2022-09-21T09:27:20.872Z,13.89
2022-09-21T09:30:04.226Z,13.82
2022-09-21T09:32:43.487Z,13.69
2022-09-21T09:35:25.461Z,13.81
2022-09-21T09:37:55.174Z,13.84
2022-09-21T09:40:55.164Z,13.87
2022-09-21T09:43:38.715Z,13.65
2022-09-21T09:46:20.559Z,13.81
2022-09-21T09:49:05.005Z,13.81
2022-09-21T09:51:35.253Z,13.81
2022-09-21T09:54:06.894Z,13.31
2022-09-21T09:56:36.200Z,13.11
2022-09-21T09:59:08.301Z,13.17
2022-09-21T10:01:44.420Z,13.59
2022-09-21T10:04:12.964Z,13.33
2022-09-21T10:06:45.349Z,13.18
2022-09-21T10:09:19.474Z,13.40
2022-09-21T10:11:46.608Z,13.93
2022-09-21T10:14:21.202Z,14.22
2022-09-21T10:16:51.672Z,14.31
2022-09-21T10:19:24.030Z,14.31
2022-09-21T10:22:01.629Z,14.27
2022-09-21T10:24:34.065Z,13.91
2022-09-21T10:27:14.441Z,13.84
2022-09-21T10:29:43.391Z,13.93
2022-09-21T10:32:14.940Z,14.17
2022-09-21T10:35:00.476Z,14.35
2022-09-21T10:37:37.280Z,14.45
2022-09-21T10:40:05.325Z,14.44
2022-09-21T10:42:36.511Z,14.37
2022-09-21T10:45:20.224Z,14.06
2022-09-21T10:47:53.077Z,13.91
2022-09-21T10:50:26.101Z,14.12
2022-09-21T10:53:01.177Z,14.16
2022-09-21T10:55:30.138Z,14.43
2022-09-21T10:57:57.083Z,14.59
2022-09-21T11:00:34.994Z,14.52
2022-09-21T11:03:35.797Z,14.31
2022-09-21T11:06:15.394Z,14.42
2022-09-21T11:08:50.104Z,14.38
2022-09-21T11:11:27.288Z,14.35
2022-09-21T11:14:05.053Z,14.21
2022-09-21T11:16:42.063Z,14.15
2022-09-21T11:19:18.855Z,14.21
2022-09-21T11:22:02.435Z,14.32
2022-09-21T11:24:37.140Z,14.37
2022-09-21T11:27:11.554Z,14.23
2022-09-21T11:29:51.518Z,14.34
2022-09-21T11:32:49.476Z,14.39
2022-09-21T11:35:33.019Z,14.42
2022-09-21T11:38:34.281Z,14.50
2022-09-21T11:41:18.882Z,14.40
2022-09-21T11:43:51.540Z,14.47
2022-09-21T11:46:40.844Z,14.60
2022-09-21T11:49:40.177Z,14.90
2022-09-21T11:52:32.397Z,15.18
2022-09-21T11:55:16.861Z,15.39
2022-09-21T11:58:10.664Z,15.60
2022-09-21T12:00:45.721Z,15.65
2022-09-21T12:03:38.237Z,15.72
2022-09-21T12:06:28.390Z,15.68
2022-09-21T12:09:10.507Z,15.74
2022-09-21T12:11:44.778Z,15.68
2022-09-21T12:14:34.517Z,15.91
2022-09-21T12:17:24.471Z,16.20
2022-09-21T12:20:05.315Z,16.49
2022-09-21T12:22:35.206Z,16.73
2022-09-21T12:25:10.911Z,16.89
2022-09-21T12:27:40.134Z,17.14
2022-09-21T12:30:17.119Z,17.20
2022-09-21T12:32:58.119Z,17.34
2022-09-21T12:35:45.067Z,17.07
2022-09-21T12:41:37.368Z,17.23
2022-09-21T12:44:20.144Z,17.16
2022-09-21T12:47:09.489Z,16.81
2022-09-21T12:49:45.484Z,16.87
2022-09-21T12:52:24.737Z,16.52
2022-09-21T12:55:19.381Z,16.21
2022-09-21T12:58:14.499Z,15.95
2022-09-21T13:00:57.609Z,15.67
2022-09-21T13:03:36.214Z,15.87
2022-09-21T13:06:15.924Z,16.15
2022-09-21T13:08:44.767Z,16.12
2022-09-21T13:11:11.666Z,15.92
2022-09-21T13:13:41.655Z,16.15
2022-09-21T13:16:31.037Z,16.22
2022-09-21T13:19:03.443Z,16.26
2022-09-21T13:21:32.358Z,16.31
2022-09-21T13:24:01.483Z,16.05
2022-09-21T13:26:40.943Z,15.96
2022-09-21T13:29:19.902Z,15.92
2022-09-21T13:32:07.797Z,15.76
2022-09-21T13:34:45.378Z,15.47
2022-09-21T13:37:11.950Z,15.37
2022-09-21T13:39:50.636Z,15.36
2022-09-21T13:42:29.410Z,15.64
2022-09-21T13:44:59.978Z,15.91
2022-09-21T13:47:32.271Z,16.43
2022-09-21T13:50:12.642Z,16.57
2022-09-21T13:52:44.743Z,16.29
2022-09-21T13:55:28.703Z,15.88
2022-09-21T13:57:57.210Z,15.70
2022-09-21T14:00:36.402Z,15.62
2022-09-21T14:03:22.461Z,15.38
2022-09-21T14:06:20.506Z,15.15
2022-09-21T14:08:58.128Z,15.22
2022-09-21T14:11:39.291Z,15.02
2022-09-21T14:14:12.329Z,15.01
2022-09-21T14:16:39.576Z,14.97
2022-09-21T14:19:18.106Z,14.89
2022-09-21T14:22:05.561Z,15.07
2022-09-21T14:24:38.581Z,15.28
2022-09-21T14:27:31.657Z,15.39
2022-09-21T14:30:22.244Z,15.66
2022-09-21T14:33:07.411Z,15.68
2022-09-21T14:35:37.904Z,15.58
2022-09-21T14:38:12.738Z,15.58
2022-09-21T14:40:42.433Z,15.32
2022-09-21T14:43:12.532Z,15.46
2022-09-21T14:46:11.885Z,15.45
2022-09-21T14:49:16.119Z,15.45
2022-09-21T14:51:55.768Z,15.48
2022-09-21T14:55:02.744Z,15.44
2022-09-21T14:57:54.103Z,15.37
2022-09-21T15:00:35.578Z,15.45
2022-09-21T15:03:30.713Z,15.48
2022-09-21T15:06:31.066Z,15.46
2022-09-21T15:09:22.532Z,15.47
2022-09-21T15:11:56.699Z,15.49
2022-09-21T15:14:32.430Z,15.34
2022-09-21T15:16:59.246Z,15.29
2022-09-21T15:19:30.152Z,15.48
2022-09-21T15:22:15.202Z,15.55
2022-09-21T15:24:57.290Z,15.51
2022-09-21T15:27:33.473Z,15.39
2022-09-21T15:30:03.227Z,15.41
2022-09-21T15:32:47.651Z,15.41
2022-09-21T15:35:20.235Z,15.35
2022-09-21T15:37:47.612Z,15.45
2022-09-21T15:40:23.374Z,15.60
2022-09-21T15:43:15.904Z,15.59
2022-09-21T15:45:51.646Z,15.39
2022-09-21T15:48:19.913Z,15.40
2022-09-21T15:50:50.657Z,15.26
2022-09-21T15:53:23.746Z,15.11
2022-09-21T15:55:50.716Z,15.11
2022-09-21T15:58:29.885Z,15.01
2022-09-21T16:00:57.769Z,15.04
2022-09-21T16:03:26.064Z,14.93
2022-09-21T16:05:55.453Z,14.88
2022-09-21T16:08:34.630Z,14.87
2022-09-21T16:11:26.282Z,14.88
2022-09-21T16:14:32.827Z,14.75
2022-09-21T16:17:27.221Z,14.71
2022-09-21T16:19:54.008Z,14.62
2022-09-21T16:22:30.278Z,14.66
2022-09-21T16:24:59.489Z,14.60
2022-09-21T16:27:28.878Z,14.61
2022-09-21T16:29:57.299Z,14.62
2022-09-21T16:32:32.077Z,14.66
2022-09-21T16:35:31.715Z,14.55
2022-09-21T16:37:59.166Z,14.47
2022-09-21T16:40:28.185Z,14.47
2022-09-21T16:42:55.560Z,14.37
2022-09-21T16:45:31.810Z,14.28
2022-09-21T16:47:59.567Z,14.13
2022-09-21T16:50:26.532Z,13.97
2022-09-21T16:52:53.164Z,13.84
2022-09-21T16:55:22.468Z,13.67
2022-09-21T16:57:51.089Z,13.67
2022-09-21T17:00:22.152Z,13.66
2022-09-21T17:02:49.378Z,13.70
2022-09-21T17:05:19.412Z,13.63
2022-09-21T17:07:54.319Z,13.60
2022-09-21T17:10:24.317Z,13.52
2022-09-21T17:12:51.956Z,13.42
2022-09-21T17:15:18.723Z,13.38
2022-09-21T17:17:45.403Z,13.33
2022-09-21T17:20:21.520Z,13.18
2022-09-21T17:22:48.592Z,13.06
2022-09-21T17:25:15.354Z,12.84
2022-09-21T17:27:42.431Z,12.80
2022-09-21T17:30:13.374Z,12.65
2022-09-21T17:32:42.624Z,12.47
2022-09-21T17:35:33.985Z,12.32
2022-09-21T17:38:00.679Z,12.24
2022-09-21T17:40:27.647Z,12.14
2022-09-21T17:43:05.178Z,12.03
2022-09-21T17:45:42.612Z,11.98
2022-09-21T17:48:13.872Z,11.95
2022-09-21T17:50:40.621Z,11.92
2022-09-21T17:53:28.002Z,11.92
2022-09-21T17:55:57.886Z,11.90
2022-09-21T17:58:54.001Z,11.92
2022-09-21T18:01:39.680Z,11.89
2022-09-21T18:04:08.346Z,11.80
2022-09-21T18:06:35.448Z,11.74
2022-09-21T18:09:03.246Z,11.78
2022-09-21T18:12:07.609Z,11.75
2022-09-21T18:14:48.633Z,11.71
2022-09-21T18:17:48.277Z,11.66
2022-09-21T18:20:23.639Z,11.61
2022-09-21T18:23:02.363Z,11.54
2022-09-21T18:25:34.335Z,11.48
2022-09-21T18:28:17.217Z,11.40
2022-09-21T18:30:46.342Z,11.35
2022-09-21T18:33:31.192Z,11.21
2022-09-21T18:36:10.575Z,10.94
2022-09-21T18:38:53.184Z,10.72
2022-09-21T18:41:46.074Z,10.71
2022-09-21T18:44:26.180Z,10.70
2022-09-21T18:47:11.905Z,10.61
2022-09-21T18:50:03.942Z,10.65
2022-09-21T18:52:39.665Z,10.59
2022-09-21T18:55:18.339Z,10.55
2022-09-21T18:57:45.462Z,10.49
2022-09-21T19:00:13.475Z,10.45
2022-09-21T19:02:53.499Z,10.38
2022-09-21T19:05:27.722Z,10.35
2022-09-21T19:08:09.353Z,10.30
2022-09-21T19:10:44.301Z,10.28
2022-09-21T19:13:31.703Z,10.25
2022-09-21T19:16:05.203Z,10.21
2022-09-21T19:18:50.580Z,10.17
2022-09-21T19:21:28.216Z,10.15
2022-09-21T19:24:06.548Z,10.07
2022-09-21T19:26:48.164Z,10.00
2022-09-21T19:29:19.870Z,10.00
2022-09-21T19:31:46.957Z,10.03
2022-09-21T19:34:16.634Z,9.98
2022-09-21T19:36:47.201Z,9.88
2022-09-21T19:39:14.497Z,9.77
2022-09-21T19:41:49.230Z,9.74
2022-09-21T19:44:44.628Z,9.69
2022-09-21T19:47:25.698Z,9.67
2022-09-21T19:49:54.614Z,9.65
2022-09-21T19:52:28.723Z,9.64
2022-09-21T19:55:14.208Z,9.59
2022-09-21T19:58:00.125Z,9.59
2022-09-21T20:00:27.000Z,9.51
2022-09-21T20:03:03.471Z,9.52
2022-09-21T20:05:35.350Z,9.45
2022-09-21T20:08:16.474Z,9.42
2022-09-21T20:11:00.624Z,9.33
2022-09-21T20:13:33.064Z,9.20
2022-09-21T20:16:19.064Z,9.15
2022-09-21T20:18:55.074Z,9.17
2022-09-21T20:21:22.674Z,9.11
2022-09-21T20:23:58.158Z,9.03
2022-09-21T20:26:26.472Z,8.96
2022-09-21T20:28:53.867Z,9.02
2022-09-21T20:31:22.459Z,9.06
2022-09-21T20:33:49.592Z,9.00
2022-09-21T20:36:16.258Z,8.98
2022-09-21T20:38:42.950Z,8.97
2022-09-21T20:41:12.020Z,8.96
2022-09-21T20:43:38.945Z,8.86
2022-09-21T20:46:05.809Z,8.85
2022-09-21T20:48:32.822Z,8.81
2022-09-21T20:51:01.558Z,8.73
2022-09-21T20:53:28.256Z,8.64
2022-09-21T20:55:57.194Z,8.54
2022-09-21T20:58:24.815Z,8.60
2022-09-21T21:00:57.911Z,8.60
2022-09-21T21:03:25.330Z,8.59
2022-09-21T21:05:51.970Z,8.61
2022-09-21T21:08:18.845Z,8.61
2022-09-21T21:10:46.914Z,8.60
2022-09-21T21:13:13.704Z,8.56
2022-09-21T21:15:40.647Z,8.53
2022-09-21T21:18:11.187Z,8.48
2022-09-21T21:20:37.886Z,8.44
2022-09-21T21:23:07.925Z,8.38
2022-09-21T21:25:35.265Z,8.42
2022-09-21T21:28:02.497Z,8.36
2022-09-21T21:30:29.097Z,8.35
2022-09-21T21:32:56.171Z,8.34
2022-09-21T21:35:22.882Z,8.34
2022-09-21T21:37:49.742Z,8.36
2022-09-21T21:40:16.444Z,8.35
2022-09-21T21:42:43.120Z,8.30
2022-09-21T21:45:12.882Z,8.33
2022-09-21T21:47:40.832Z,8.31
2022-09-21T21:50:09.800Z,8.33
2022-09-21T21:52:36.854Z,8.36
2022-09-21T21:55:04.533Z,8.31
2022-09-21T21:57:31.187Z,8.22
2022-09-21T21:59:57.974Z,8.14
2022-09-21T22:02:24.732Z,8.09
2022-09-21T22:04:51.471Z,8.09
2022-09-21T22:07:18.534Z,8.07
2022-09-21T22:09:45.189Z,8.03
2022-09-21T22:12:12.031Z,7.87
2022-09-21T22:14:38.640Z,7.78
2022-09-21T22:17:05.716Z,7.72
2022-09-21T22:19:33.053Z,7.60
2022-09-21T22:21:59.961Z,7.49
2022-09-21T22:24:26.848Z,7.40
2022-09-21T22:26:53.596Z,7.45
2022-09-21T22:29:20.317Z,7.43
2022-09-21T22:31:49.138Z,7.52
2022-09-21T22:34:16.401Z,7.49
2022-09-21T22:36:45.924Z,7.57
2022-09-21T22:39:13.266Z,7.66
2022-09-21T22:41:41.799Z,7.55
2022-09-21T22:44:09.246Z,7.60
2022-09-21T22:46:36.558Z,7.64
2022-09-21T22:49:03.609Z,7.50
2022-09-21T22:51:30.395Z,7.31
2022-09-21T22:53:57.882Z,7.24
2022-09-21T22:56:29.053Z,7.17
2022-09-21T22:58:57.822Z,7.08
2022-09-21T23:01:38.714Z,7.15
2022-09-21T23:04:10.999Z,7.28
2022-09-21T23:06:39.522Z,7.29
2022-09-21T23:09:09.548Z,7.18
2022-09-21T23:11:38.721Z,7.24
2022-09-21T23:14:05.655Z,7.28
2022-09-21T23:16:32.506Z,7.31
2022-09-21T23:19:00.492Z,7.28
2022-09-21T23:21:29.638Z,7.25
2022-09-21T23:23:59.836Z,7.23
2022-09-21T23:26:28.137Z,7.21
2022-09-21T23:28:57.135Z,7.17
2022-09-21T23:31:26.640Z,7.12
2022-09-21T23:33:56.418Z,7.01
2022-09-21T23:36:28.434Z,6.83
2022-09-21T23:38:56.102Z,6.66
2022-09-21T23:41:34.178Z,6.76
2022-09-21T23:44:01.669Z,6.79
2022-09-21T23:46:34.225Z,6.78
2022-09-21T23:49:01.279Z,6.63
2022-09-21T23:51:28.204Z,6.52
2022-09-21T23:53:54.889Z,6.42
2022-09-21T23:56:22.780Z,6.41
2022-09-21T23:58:49.865Z,6.54
